sensor_id;sensor_type;location;lat;lon;timestamp;pressure;altitude;pressure_sealevel;temperature;humidity
45357;BME280;31092;51.924;21.448;2023-01-25T00:01:43;102273.16;;;0.85;100.00
45357;BME280;31092;51.924;21.448;2023-01-25T00:04:08;102348.50;;;1.31;100.00
45357;BME280;31092;51.924;21.448;2023-01-25T00:06:33;102295.91;;;0.92;100.00
45357;BME280;31092;51.924;21.448;2023-01-25T00:08:59;102368.41;;;1.19;100.00
45357;BME280;31092;51.924;21.448;2023-01-25T00:11:24;102277.09;;;0.74;100.00
45357;BME280;31092;51.924;21.448;2023-01-25T00:13:52;102364.88;;;1.19;100.00
45357;BME280;31092;51.924;21.448;2023-01-25T00:16:18;102364.00;;;1.18;100.00
45357;BME280;31092;51.924;21.448;2023-01-25T00:18:43;102279.09;;;0.67;100.00
45357;BME280;31092;51.924;21.448;2023-01-25T00:21:13;102346.56;;;1.11;100.00
45357;BME280;31092;51.924;21.448;2023-01-25T00:23:39;102245.09;;;0.53;100.00
45357;BME280;31092;51.924;21.448;2023-01-25T00:26:05;102349.22;;;1.11;100.00
45357;BME280;31092;51.924;21.448;2023-01-25T00:28:30;102262.53;;;0.60;100.00
45357;BME280;31092;51.924;21.448;2023-01-25T00:30:59;102251.91;;;0.60;100.00
45357;BME280;31092;51.924;21.448;2023-01-25T00:33:43;102322.88;;;1.05;100.00
45357;BME280;31092;51.924;21.448;2023-01-25T00:39:00;102341.09;;;1.16;100.00
45357;BME280;31092;51.924;21.448;2023-01-25T00:41:26;102263.94;;;0.70;100.00
45357;BME280;31092;51.924;21.448;2023-01-25T00:43:51;102257.94;;;0.65;100.00
45357;BME280;31092;51.924;21.448;2023-01-25T00:46:17;102297.78;;;0.89;100.00
45357;BME280;31092;51.924;21.448;2023-01-25T00:48:43;102309.03;;;0.97;100.00
45357;BME280;31092;51.924;21.448;2023-01-25T00:51:09;102302.09;;;0.93;100.00
45357;BME280;31092;51.924;21.448;2023-01-25T00:53:34;102338.63;;;1.10;100.00
45357;BME280;31092;51.924;21.448;2023-01-25T00:56:00;102262.16;;;0.71;100.00
45357;BME280;31092;51.924;21.448;2023-01-25T00:58:26;102222.25;;;0.49;100.00
45357;BME280;31092;51.924;21.448;2023-01-25T01:00:55;102313.31;;;1.01;100.00
45357;BME280;31092;51.924;21.448;2023-01-25T01:03:22;102338.72;;;1.08;100.00
45357;BME280;31092;51.924;21.448;2023-01-25T01:05:47;102332.75;;;1.02;100.00
45357;BME280;31092;51.924;21.448;2023-01-25T01:08:14;102203.38;;;0.33;100.00
45357;BME280;31092;51.924;21.448;2023-01-25T01:10:40;102304.75;;;0.93;100.00
45357;BME280;31092;51.924;21.448;2023-01-25T01:13:06;102224.09;;;0.47;100.00
45357;BME280;31092;51.924;21.448;2023-01-25T01:15:35;102248.47;;;0.58;100.00
45357;BME280;31092;51.924;21.448;2023-01-25T01:18:01;102223.34;;;0.43;100.00
45357;BME280;31092;51.924;21.448;2023-01-25T01:20:27;102225.16;;;0.41;100.00
45357;BME280;31092;51.924;21.448;2023-01-25T01:22:52;102226.00;;;0.43;100.00
45357;BME280;31092;51.924;21.448;2023-01-25T01:25:20;102298.88;;;0.83;100.00
45357;BME280;31092;51.924;21.448;2023-01-25T01:27:56;102283.25;;;0.76;100.00
45357;BME280;31092;51.924;21.448;2023-01-25T01:30:21;102319.69;;;0.95;100.00
45357;BME280;31092;51.924;21.448;2023-01-25T01:32:50;102205.84;;;0.38;100.00
45357;BME280;31092;51.924;21.448;2023-01-25T01:35:15;102296.22;;;0.83;100.00
45357;BME280;31092;51.924;21.448;2023-01-25T01:37:41;102317.03;;;0.95;100.00
45357;BME280;31092;51.924;21.448;2023-01-25T01:40:07;102311.06;;;0.89;100.00
45357;BME280;31092;51.924;21.448;2023-01-25T01:51:18;102303.09;;;0.89;100.00
45357;BME280;31092;51.924;21.448;2023-01-25T01:53:51;102190.56;;;0.19;100.00
45357;BME280;31092;51.924;21.448;2023-01-25T01:56:22;102279.81;;;0.72;100.00
45357;BME280;31092;51.924;21.448;2023-01-25T01:58:52;102204.50;;;0.26;100.00
45357;BME280;31092;51.924;21.448;2023-01-25T02:01:18;102271.25;;;0.64;100.00
45357;BME280;31092;51.924;21.448;2023-01-25T02:03:44;102280.72;;;0.71;100.00
45357;BME280;31092;51.924;21.448;2023-01-25T02:06:14;102314.81;;;0.83;100.00
45357;BME280;31092;51.924;21.448;2023-01-25T02:08:41;102293.09;;;0.72;100.00
45357;BME280;31092;51.924;21.448;2023-01-25T02:11:09;102263.66;;;0.53;100.00
45357;BME280;31092;51.924;21.448;2023-01-25T02:13:36;102300.78;;;0.80;100.00
45357;BME280;31092;51.924;21.448;2023-01-25T02:16:02;102194.19;;;0.17;100.00
45357;BME280;31092;51.924;21.448;2023-01-25T02:18:28;102280.78;;;0.69;100.00
45357;BME280;31092;51.924;21.448;2023-01-25T02:20:57;102284.38;;;0.68;100.00
45357;BME280;31092;51.924;21.448;2023-01-25T02:26:17;102188.09;;;0.15;100.00
45357;BME280;31092;51.924;21.448;2023-01-25T02:28:59;102185.44;;;0.15;100.00
45357;BME280;31092;51.924;21.448;2023-01-25T02:31:26;102218.31;;;0.36;100.00
45357;BME280;31092;51.924;21.448;2023-01-25T02:33:52;102187.22;;;0.14;100.00
45357;BME280;31092;51.924;21.448;2023-01-25T02:36:24;102175.78;;;0.12;100.00
45357;BME280;31092;51.924;21.448;2023-01-25T02:41:39;102265.13;;;0.62;100.00
45357;BME280;31092;51.924;21.448;2023-01-25T02:44:09;102257.47;;;0.53;100.00
45357;BME280;31092;51.924;21.448;2023-01-25T02:46:37;102255.69;;;0.53;100.00
45357;BME280;31092;51.924;21.448;2023-01-25T02:49:05;102195.03;;;0.17;100.00
45357;BME280;31092;51.924;21.448;2023-01-25T02:51:33;102163.00;;;-0.02;100.00
45357;BME280;31092;51.924;21.448;2023-01-25T02:54:00;102196.91;;;0.15;100.00
45357;BME280;31092;51.924;21.448;2023-01-25T02:56:26;102254.13;;;0.47;100.00
45357;BME280;31092;51.924;21.448;2023-01-25T02:58:51;102243.72;;;0.41;100.00
45357;BME280;31092;51.924;21.448;2023-01-25T03:01:17;102211.88;;;0.16;100.00
45357;BME280;31092;51.924;21.448;2023-01-25T03:03:42;102197.09;;;0.09;100.00
45357;BME280;31092;51.924;21.448;2023-01-25T03:06:08;102261.47;;;0.39;100.00
45357;BME280;31092;51.924;21.448;2023-01-25T03:08:34;102162.44;;;-0.11;100.00
45357;BME280;31092;51.924;21.448;2023-01-25T03:11:01;102232.72;;;0.27;100.00
45357;BME280;31092;51.924;21.448;2023-01-25T03:13:28;102251.66;;;0.43;100.00
45357;BME280;31092;51.924;21.448;2023-01-25T03:16:05;102211.06;;;0.14;100.00
45357;BME280;31092;51.924;21.448;2023-01-25T03:18:32;102258.00;;;0.37;100.00
45357;BME280;31092;51.924;21.448;2023-01-25T03:21:12;102251.00;;;0.35;100.00
45357;BME280;31092;51.924;21.448;2023-01-25T03:23:38;102142.72;;;-0.29;100.00
45357;BME280;31092;51.924;21.448;2023-01-25T03:28:51;102167.03;;;-0.16;100.00
45357;BME280;31092;51.924;21.448;2023-01-25T03:31:18;102147.13;;;-0.30;100.00
45357;BME280;31092;51.924;21.448;2023-01-25T03:33:44;102243.47;;;0.22;100.00
45357;BME280;31092;51.924;21.448;2023-01-25T03:36:10;102130.44;;;-0.32;100.00
45357;BME280;31092;51.924;21.448;2023-01-25T03:38:35;102215.53;;;0.12;100.00
45357;BME280;31092;51.924;21.448;2023-01-25T03:41:02;102119.19;;;-0.38;100.00
45357;BME280;31092;51.924;21.448;2023-01-25T03:43:29;102211.09;;;0.13;100.00
45357;BME280;31092;51.924;21.448;2023-01-25T03:45:56;102129.00;;;-0.42;100.00
45357;BME280;31092;51.924;21.448;2023-01-25T03:48:23;102215.53;;;0.12;100.00
45357;BME280;31092;51.924;21.448;2023-01-25T03:50:56;102202.56;;;0.05;100.00
45357;BME280;31092;51.924;21.448;2023-01-25T03:53:23;102121.09;;;-0.43;100.00
45357;BME280;31092;51.924;21.448;2023-01-25T03:56:01;102103.75;;;-0.52;100.00
45357;BME280;31092;51.924;21.448;2023-01-25T03:58:28;102179.19;;;-0.11;100.00
45357;BME280;31092;51.924;21.448;2023-01-25T04:00:55;102194.59;;;0.05;100.00
45357;BME280;31092;51.924;21.448;2023-01-25T04:03:22;102174.88;;;-0.13;100.00
45357;BME280;31092;51.924;21.448;2023-01-25T04:05:47;102111.69;;;-0.52;100.00
45357;BME280;31092;51.924;21.448;2023-01-25T04:08:13;102177.47;;;-0.12;100.00
45357;BME280;31092;51.924;21.448;2023-01-25T04:10:38;102198.56;;;-0.09;100.00
45357;BME280;31092;51.924;21.448;2023-01-25T04:13:04;102164.03;;;-0.34;100.00
45357;BME280;31092;51.924;21.448;2023-01-25T04:15:29;102133.91;;;-0.58;100.00
45357;BME280;31092;51.924;21.448;2023-01-25T04:17:55;102162.44;;;-0.39;100.00
45357;BME280;31092;51.924;21.448;2023-01-25T04:20:21;102163.47;;;-0.43;100.00
45357;BME280;31092;51.924;21.448;2023-01-25T04:22:46;102199.81;;;-0.20;100.00
45357;BME280;31092;51.924;21.448;2023-01-25T04:25:12;102097.34;;;-0.73;100.00
45357;BME280;31092;51.924;21.448;2023-01-25T04:27:37;102214.69;;;-0.16;100.00
45357;BME280;31092;51.924;21.448;2023-01-25T04:30:03;102126.03;;;-0.59;100.00
45357;BME280;31092;51.924;21.448;2023-01-25T04:32:29;102165.22;;;-0.42;100.00
45357;BME280;31092;51.924;21.448;2023-01-25T04:34:56;102219.06;;;-0.15;100.00
45357;BME280;31092;51.924;21.448;2023-01-25T04:37:21;102106.06;;;-0.69;100.00
45357;BME280;31092;51.924;21.448;2023-01-25T04:39:47;102048.19;;;-1.08;100.00
45357;BME280;31092;51.924;21.448;2023-01-25T04:42:12;102206.06;;;-0.23;100.00
45357;BME280;31092;51.924;21.448;2023-01-25T04:44:37;102170.28;;;-0.35;100.00
45357;BME280;31092;51.924;21.448;2023-01-25T04:47:03;102090.84;;;-0.91;100.00
45357;BME280;31092;51.924;21.448;2023-01-25T04:49:28;102162.50;;;-0.41;100.00
45357;BME280;31092;51.924;21.448;2023-01-25T04:51:54;102169.53;;;-0.40;100.00
45357;BME280;31092;51.924;21.448;2023-01-25T04:54:19;102153.78;;;-0.44;100.00
45357;BME280;31092;51.924;21.448;2023-01-25T04:56:45;102066.41;;;-0.99;100.00
45357;BME280;31092;51.924;21.448;2023-01-25T04:59:10;102108.84;;;-0.74;100.00
45357;BME280;31092;51.924;21.448;2023-01-25T05:01:36;102108.13;;;-0.79;100.00
45357;BME280;31092;51.924;21.448;2023-01-25T05:04:01;102171.16;;;-0.36;100.00
45357;BME280;31092;51.924;21.448;2023-01-25T05:06:26;102180.00;;;-0.35;100.00
45357;BME280;31092;51.924;21.448;2023-01-25T05:08:52;102187.63;;;-0.26;100.00
45357;BME280;31092;51.924;21.448;2023-01-25T05:11:17;102011.91;;;-1.33;100.00
45357;BME280;31092;51.924;21.448;2023-01-25T05:13:43;102177.13;;;-0.29;100.00
45357;BME280;31092;51.924;21.448;2023-01-25T05:16:08;102071.50;;;-0.93;100.00
45357;BME280;31092;51.924;21.448;2023-01-25T05:18:34;102181.56;;;-0.30;100.00
45357;BME280;31092;51.924;21.448;2023-01-25T05:20:59;102064.63;;;-0.99;100.00
45357;BME280;31092;51.924;21.448;2023-01-25T05:23:24;102185.31;;;-0.37;100.00
45357;BME280;31092;51.924;21.448;2023-01-25T05:25:50;102168.75;;;-0.43;100.00
45357;BME280;31092;51.924;21.448;2023-01-25T05:28:34;102152.19;;;-0.50;100.00
45357;BME280;31092;51.924;21.448;2023-01-25T05:31:03;101989.28;;;-1.43;100.00
45357;BME280;31092;51.924;21.448;2023-01-25T05:33:28;102158.25;;;-0.46;100.00
45357;BME280;31092;51.924;21.448;2023-01-25T05:35:54;102164.53;;;-0.49;100.00
45357;BME280;31092;51.924;21.448;2023-01-25T05:38:20;102163.47;;;-0.43;100.00
45357;BME280;31092;51.924;21.448;2023-01-25T05:40:46;102138.25;;;-0.55;100.00
45357;BME280;31092;51.924;21.448;2023-01-25T05:43:11;102074.16;;;-0.93;100.00
45357;BME280;31092;51.924;21.448;2023-01-25T05:45:37;102063.72;;;-0.98;100.00
45357;BME280;31092;51.924;21.448;2023-01-25T05:48:02;102060.47;;;-1.07;100.00
45357;BME280;31092;51.924;21.448;2023-01-25T05:50:28;102090.84;;;-0.91;100.00
45357;BME280;31092;51.924;21.448;2023-01-25T05:52:53;102131.66;;;-0.70;100.00
45357;BME280;31092;51.924;21.448;2023-01-25T05:55:19;102164.44;;;-0.46;100.00
45357;BME280;31092;51.924;21.448;2023-01-25T05:57:44;102118.75;;;-0.81;100.00
45357;BME280;31092;51.924;21.448;2023-01-25T06:00:10;102196.06;;;-0.41;100.00
45357;BME280;31092;51.924;21.448;2023-01-25T06:02:36;102157.72;;;-0.58;100.00
45357;BME280;31092;51.924;21.448;2023-01-25T06:05:03;102079.81;;;-1.05;100.00
45357;BME280;31092;51.924;21.448;2023-01-25T06:07:33;102007.00;;;-1.45;100.00
45357;BME280;31092;51.924;21.448;2023-01-25T06:10:00;102100.59;;;-0.93;100.00
45357;BME280;31092;51.924;21.448;2023-01-25T06:12:26;102176.16;;;-0.53;100.00
45357;BME280;31092;51.924;21.448;2023-01-25T06:14:51;102071.19;;;-1.12;100.00
45357;BME280;31092;51.924;21.448;2023-01-25T06:17:18;102172.75;;;-0.58;100.00
45357;BME280;31092;51.924;21.448;2023-01-25T06:19:43;102083.19;;;-1.00;100.00
45357;BME280;31092;51.924;21.448;2023-01-25T06:22:09;102160.97;;;-0.48;100.00
45357;BME280;31092;51.924;21.448;2023-01-25T06:24:34;102061.41;;;-1.08;100.00
45357;BME280;31092;51.924;21.448;2023-01-25T06:27:00;102122.09;;;-0.74;100.00
45357;BME280;31092;51.924;21.448;2023-01-25T06:29:25;102030.25;;;-1.28;100.00
45357;BME280;31092;51.924;21.448;2023-01-25T06:31:51;102074.34;;;-0.99;100.00
45357;BME280;31092;51.924;21.448;2023-01-25T06:34:17;102026.84;;;-1.32;100.00
45357;BME280;31092;51.924;21.448;2023-01-25T06:36:43;102167.13;;;-0.47;100.00
45357;BME280;31092;51.924;21.448;2023-01-25T06:39:08;102140.91;;;-0.55;100.00
45357;BME280;31092;51.924;21.448;2023-01-25T06:41:34;101989.38;;;-1.46;100.00
45357;BME280;31092;51.924;21.448;2023-01-25T06:43:59;102135.66;;;-0.57;100.00
45357;BME280;31092;51.924;21.448;2023-01-25T06:46:25;102150.19;;;-0.42;100.00
45357;BME280;31092;51.924;21.448;2023-01-25T06:48:50;102153.63;;;-0.38;100.00
45357;BME280;31092;51.924;21.448;2023-01-25T06:51:16;102102.41;;;-0.65;100.00
45357;BME280;31092;51.924;21.448;2023-01-25T06:53:44;102051.41;;;-0.99;100.00
45357;BME280;31092;51.924;21.448;2023-01-25T06:56:17;102055.84;;;-0.99;100.00
45357;BME280;31092;51.924;21.448;2023-01-25T06:58:43;102065.25;;;-0.90;100.00
45357;BME280;31092;51.924;21.448;2023-01-25T07:01:15;102154.63;;;-0.42;100.00
45357;BME280;31092;51.924;21.448;2023-01-25T07:03:47;102057.63;;;-1.00;100.00
45357;BME280;31092;51.924;21.448;2023-01-25T07:06:12;102125.09;;;-0.58;100.00
45357;BME280;31092;51.924;21.448;2023-01-25T07:08:38;102128.59;;;-0.56;100.00
45357;BME280;31092;51.924;21.448;2023-01-25T07:11:05;102159.09;;;-0.44;100.00
45357;BME280;31092;51.924;21.448;2023-01-25T07:13:32;102114.63;;;-0.61;100.00
45357;BME280;31092;51.924;21.448;2023-01-25T07:16:00;102110.50;;;-0.70;100.00
45357;BME280;31092;51.924;21.448;2023-01-25T07:18:27;102140.81;;;-0.52;100.00
45357;BME280;31092;51.924;21.448;2023-01-25T07:20:54;102072.09;;;-0.83;100.00
45357;BME280;31092;51.924;21.448;2023-01-25T07:23:20;102102.22;;;-0.59;100.00
45357;BME280;31092;51.924;21.448;2023-01-25T07:25:47;102119.47;;;-0.47;100.00
45357;BME280;31092;51.924;21.448;2023-01-25T07:28:14;102119.56;;;-0.51;100.00
45357;BME280;31092;51.924;21.448;2023-01-25T07:30:53;102139.69;;;-0.45;100.00
45357;BME280;31092;51.924;21.448;2023-01-25T07:33:25;102096.06;;;-0.60;100.00
45357;BME280;31092;51.924;21.448;2023-01-25T07:35:50;102003.16;;;-1.07;100.00
45357;BME280;31092;51.924;21.448;2023-01-25T07:38:15;102008.41;;;-1.05;100.00
45357;BME280;31092;51.924;21.448;2023-01-25T07:40:41;102073.25;;;-0.64;100.00
45357;BME280;31092;51.924;21.448;2023-01-25T07:43:07;102011.66;;;-0.97;100.00
45357;BME280;31092;51.924;21.448;2023-01-25T07:45:32;102079.31;;;-0.60;100.00
45357;BME280;31092;51.924;21.448;2023-01-25T07:47:59;102083.78;;;-0.62;100.00
45357;BME280;31092;51.924;21.448;2023-01-25T07:50:26;102080.94;;;-0.56;100.00
45357;BME280;31092;51.924;21.448;2023-01-25T07:52:52;102009.03;;;-0.97;100.00
45357;BME280;31092;51.924;21.448;2023-01-25T07:55:18;102099.94;;;-0.43;100.00
45357;BME280;31092;51.924;21.448;2023-01-25T07:57:43;102067.91;;;-0.62;100.00
45357;BME280;31092;51.924;21.448;2023-01-25T08:00:09;102128.00;;;-0.38;100.00
45357;BME280;31092;51.924;21.448;2023-01-25T08:02:35;102093.78;;;-0.44;100.00
45357;BME280;31092;51.924;21.448;2023-01-25T08:05:00;102113.13;;;-0.42;100.00
45357;BME280;31092;51.924;21.448;2023-01-25T08:07:27;102075.66;;;-0.56;100.00
45357;BME280;31092;51.924;21.448;2023-01-25T08:09:53;102087.81;;;-0.51;100.00
45357;BME280;31092;51.924;21.448;2023-01-25T08:12:19;102010.03;;;-1.01;100.00
45357;BME280;31092;51.924;21.448;2023-01-25T08:14:44;102092.13;;;-0.48;100.00
45357;BME280;31092;51.924;21.448;2023-01-25T08:17:10;102045.44;;;-0.77;100.00
45357;BME280;31092;51.924;21.448;2023-01-25T08:19:35;102032.59;;;-0.89;100.00
45357;BME280;31092;51.924;21.448;2023-01-25T08:22:01;102104.69;;;-0.55;100.00
45357;BME280;31092;51.924;21.448;2023-01-25T08:24:26;102008.56;;;-1.10;100.00
45357;BME280;31092;51.924;21.448;2023-01-25T08:26:52;102031.88;;;-0.94;100.00
45357;BME280;31092;51.924;21.448;2023-01-25T08:29:17;101986.91;;;-1.23;100.00
45357;BME280;31092;51.924;21.448;2023-01-25T08:31:43;102096.56;;;-0.49;100.00
45357;BME280;31092;51.924;21.448;2023-01-25T08:34:09;102061.94;;;-0.69;100.00
45357;BME280;31092;51.924;21.448;2023-01-25T08:36:35;102002.19;;;-1.04;100.00
45357;BME280;31092;51.924;21.448;2023-01-25T08:39:03;102078.31;;;-0.58;100.00
45357;BME280;31092;51.924;21.448;2023-01-25T08:41:31;102011.53;;;-0.92;100.00
45357;BME280;31092;51.924;21.448;2023-01-25T08:43:57;102084.34;;;-0.53;100.00
45357;BME280;31092;51.924;21.448;2023-01-25T08:46:25;102003.66;;;-0.94;100.00
45357;BME280;31092;51.924;21.448;2023-01-25T08:48:55;102087.78;;;-0.49;100.00
45357;BME280;31092;51.924;21.448;2023-01-25T08:51:22;102083.38;;;-0.50;100.00
45357;BME280;31092;51.924;21.448;2023-01-25T08:53:47;102035.56;;;-0.72;100.00
45357;BME280;31092;51.924;21.448;2023-01-25T08:56:15;102053.72;;;-0.60;100.00
45357;BME280;31092;51.924;21.448;2023-01-25T08:58:42;102068.66;;;-0.59;100.00
45357;BME280;31092;51.924;21.448;2023-01-25T09:01:10;102063.31;;;-0.57;100.00
45357;BME280;31092;51.924;21.448;2023-01-25T09:03:37;101944.75;;;-1.27;100.00
45357;BME280;31092;51.924;21.448;2023-01-25T09:06:03;102009.66;;;-0.89;100.00
45357;BME280;31092;51.924;21.448;2023-01-25T09:08:29;101967.91;;;-1.07;100.00
45357;BME280;31092;51.924;21.448;2023-01-25T09:11:02;102059.00;;;-0.60;100.00
45357;BME280;31092;51.924;21.448;2023-01-25T09:13:28;102070.72;;;-0.40;100.00
45357;BME280;31092;51.924;21.448;2023-01-25T09:16:01;101966.13;;;-1.07;100.00
45357;BME280;31092;51.924;21.448;2023-01-25T09:18:28;102040.59;;;-0.64;100.00
45357;BME280;31092;51.924;21.448;2023-01-25T09:20:54;101963.47;;;-1.07;100.00
45357;BME280;31092;51.924;21.448;2023-01-25T09:23:20;102068.22;;;-0.45;100.00
45357;BME280;31092;51.924;21.448;2023-01-25T09:25:48;102052.78;;;-0.59;100.00
45357;BME280;31092;51.924;21.448;2023-01-25T09:28:13;102044.00;;;-0.61;100.00
45357;BME280;31092;51.924;21.448;2023-01-25T09:30:39;101998.84;;;-0.81;100.00
45357;BME280;31092;51.924;21.448;2023-01-25T09:33:06;102051.75;;;-0.55;100.00
45357;BME280;31092;51.924;21.448;2023-01-25T09:35:32;102033.06;;;-0.77;100.00
45357;BME280;31092;51.924;21.448;2023-01-25T09:37:58;101981.91;;;-1.04;100.00
45357;BME280;31092;51.924;21.448;2023-01-25T09:40:25;101905.81;;;-1.50;100.00
45357;BME280;31092;51.924;21.448;2023-01-25T09:43:11;102058.22;;;-0.63;100.00
45357;BME280;31092;51.924;21.448;2023-01-25T09:45:40;101967.22;;;-1.12;100.00
45357;BME280;31092;51.924;21.448;2023-01-25T09:48:28;102043.97;;;-0.59;100.00
45357;BME280;31092;51.924;21.448;2023-01-25T09:53:48;102018.13;;;-0.78;100.00
45357;BME280;31092;51.924;21.448;2023-01-25T09:56:24;102034.31;;;-0.60;100.00
45357;BME280;31092;51.924;21.448;2023-01-25T09:58:54;101950.94;;;-1.00;100.00
45357;BME280;31092;51.924;21.448;2023-01-25T10:06:40;101914.13;;;-1.06;100.00
45357;BME280;31092;51.924;21.448;2023-01-25T10:09:23;101917.28;;;-0.95;100.00
45357;BME280;31092;51.924;21.448;2023-01-25T10:11:51;101889.66;;;-1.13;100.00
45357;BME280;31092;51.924;21.448;2023-01-25T10:14:18;101983.97;;;-0.59;100.00
45357;BME280;31092;51.924;21.448;2023-01-25T10:19:43;101997.50;;;-0.41;100.00
45357;BME280;31092;51.924;21.448;2023-01-25T10:22:17;101882.41;;;-1.08;100.00
45357;BME280;31092;51.924;21.448;2023-01-25T10:33:15;101957.78;;;-0.68;100.00
45357;BME280;31092;51.924;21.448;2023-01-25T10:35:44;101886.09;;;-1.12;100.00
45357;BME280;31092;51.924;21.448;2023-01-25T10:38:43;101975.16;;;-0.59;100.00
45357;BME280;31092;51.924;21.448;2023-01-25T10:41:38;101873.06;;;-1.18;100.00
45357;BME280;31092;51.924;21.448;2023-01-25T10:44:02;101958.25;;;-0.55;100.00
45357;BME280;31092;51.924;21.448;2023-01-25T10:46:55;101874.47;;;-1.06;100.00
45357;BME280;31092;51.924;21.448;2023-01-25T10:49:30;101952.81;;;-0.51;100.00
45357;BME280;31092;51.924;21.448;2023-01-25T10:55:01;101855.31;;;-1.14;100.00
45357;BME280;31092;51.924;21.448;2023-01-25T10:57:31;101846.84;;;-1.24;100.00
45357;BME280;31092;51.924;21.448;2023-01-25T11:00:01;101894.31;;;-0.94;100.00
45357;BME280;31092;51.924;21.448;2023-01-25T11:02:45;101931.31;;;-0.66;100.00
45357;BME280;31092;51.924;21.448;2023-01-25T11:07:42;101923.47;;;-0.69;100.00
45357;BME280;31092;51.924;21.448;2023-01-25T11:10:30;101825.34;;;-1.13;100.00
45357;BME280;31092;51.924;21.448;2023-01-25T11:15:40;101910.03;;;-0.63;100.00
45357;BME280;31092;51.924;21.448;2023-01-25T11:18:28;101834.56;;;-1.00;100.00
45357;BME280;31092;51.924;21.448;2023-01-25T11:21:18;101825.84;;;-1.04;100.00
45357;BME280;31092;51.924;21.448;2023-01-25T11:26:37;101886.22;;;-0.63;100.00
45357;BME280;31092;51.924;21.448;2023-01-25T11:29:17;101905.81;;;-0.44;100.00
45357;BME280;31092;51.924;21.448;2023-01-25T11:31:46;101795.06;;;-1.05;100.00
45357;BME280;31092;51.924;21.448;2023-01-25T11:34:17;101772.47;;;-1.15;100.00
45357;BME280;31092;51.924;21.448;2023-01-25T11:37:14;101889.88;;;-0.42;100.00
45357;BME280;31092;51.924;21.448;2023-01-25T11:45:54;101882.69;;;-0.39;100.00
45357;BME280;31092;51.924;21.448;2023-01-25T11:48:29;101773.06;;;-1.07;100.00
45357;BME280;31092;51.924;21.448;2023-01-25T11:51:05;101888.13;;;-0.43;100.00
45357;BME280;31092;51.924;21.448;2023-01-25T11:59:42;101870.59;;;-0.46;100.00
45357;BME280;31092;51.924;21.448;2023-01-25T12:05:22;101874.91;;;-0.43;100.00
45357;BME280;31092;51.924;21.448;2023-01-25T12:29:59;101766.88;;;-0.57;100.00
45357;BME280;31092;51.924;21.448;2023-01-25T12:32:39;101834.06;;;-0.13;100.00
45357;BME280;31092;51.924;21.448;2023-01-25T12:35:33;101832.38;;;-0.15;100.00
45357;BME280;31092;51.924;21.448;2023-01-25T12:38:12;101766.66;;;-0.51;100.00
45357;BME280;31092;51.924;21.448;2023-01-25T12:40:46;101821.88;;;-0.18;100.00
45357;BME280;31092;51.924;21.448;2023-01-25T12:43:17;101821.03;;;-0.19;100.00
45357;BME280;31092;51.924;21.448;2023-01-25T12:45:47;101801.94;;;-0.27;100.00
45357;BME280;31092;51.924;21.448;2023-01-25T12:48:28;101735.38;;;-0.63;100.00
45357;BME280;31092;51.924;21.448;2023-01-25T12:50:56;101795.91;;;-0.31;100.00
45357;BME280;31092;51.924;21.448;2023-01-25T12:53:44;101808.72;;;-0.20;100.00
45357;BME280;31092;51.924;21.448;2023-01-25T12:59:15;101760.38;;;-0.49;100.00
45357;BME280;31092;51.924;21.448;2023-01-25T13:01:47;101796.22;;;-0.16;100.00
45357;BME280;31092;51.924;21.448;2023-01-25T13:04:26;101714.97;;;-0.61;100.00
45357;BME280;31092;51.924;21.448;2023-01-25T13:07:57;101752.06;;;-0.39;100.00
45357;BME280;31092;51.924;21.448;2023-01-25T13:10:07;101687.28;;;-0.75;100.00
45357;BME280;31092;51.924;21.448;2023-01-25T13:12:57;101712.34;;;-0.61;100.00
45357;BME280;31092;51.924;21.448;2023-01-25T13:15:40;101769.84;;;-0.19;100.00
45357;BME280;31092;51.924;21.448;2023-01-25T13:20:59;101753.66;;;-0.12;100.00
45357;BME280;31092;51.924;21.448;2023-01-25T13:28:49;101792.19;;;-0.03;100.00
45357;BME280;31092;51.924;21.448;2023-01-25T13:34:54;101702.59;;;-0.61;100.00
45357;BME280;31092;51.924;21.448;2023-01-25T13:36:58;101745.94;;;-0.40;100.00
45357;BME280;31092;51.924;21.448;2023-01-25T13:44:47;101780.38;;;-0.18;100.00
45357;BME280;31092;51.924;21.448;2023-01-25T13:47:23;101686.16;;;-0.69;100.00
45357;BME280;31092;51.924;21.448;2023-01-25T13:52:33;101678.59;;;-0.78;100.00
45357;BME280;31092;51.924;21.448;2023-01-25T13:55:00;101742.19;;;-0.34;100.00
45357;BME280;31092;51.924;21.448;2023-01-25T13:57:27;101645.50;;;-0.90;100.00
45357;BME280;31092;51.924;21.448;2023-01-25T14:00:12;101656.63;;;-0.80;100.00
45357;BME280;31092;51.924;21.448;2023-01-25T14:02:41;101646.31;;;-0.88;100.00
45357;BME280;31092;51.924;21.448;2023-01-25T14:05:27;101756.06;;;-0.28;100.00
45357;BME280;31092;51.924;21.448;2023-01-25T14:07:54;101727.50;;;-0.43;100.00
45357;BME280;31092;51.924;21.448;2023-01-25T14:10:22;101701.53;;;-0.55;100.00
45357;BME280;31092;51.924;21.448;2023-01-25T14:12:51;101658.28;;;-0.78;100.00
45357;BME280;31092;51.924;21.448;2023-01-25T14:20:35;101640.97;;;-0.86;100.00
45357;BME280;31092;51.924;21.448;2023-01-25T14:23:00;101730.84;;;-0.38;100.00
45357;BME280;31092;51.924;21.448;2023-01-25T14:25:25;101701.22;;;-0.47;100.00
45357;BME280;31092;51.924;21.448;2023-01-25T14:27:56;101615.19;;;-1.03;100.00
45357;BME280;31092;51.924;21.448;2023-01-25T14:30:23;101721.19;;;-0.39;100.00
45357;BME280;31092;51.924;21.448;2023-01-25T14:32:52;101656.53;;;-0.79;100.00
45357;BME280;31092;51.924;21.448;2023-01-25T14:35:36;101603.03;;;-1.09;100.00
45357;BME280;31092;51.924;21.448;2023-01-25T14:38:17;101594.19;;;-1.08;100.00